Time;durP1;ratioP1;P1;durP2;ratioP2;P2;SDS_P1;SDS_P2;PMS_P1;PMS_P2;Temp;Humidity;BMP_temperature;BMP_pressure;BME280_temperature;BME280_humidity;BME280_pressure;Samples;Min_cycle;Max_cycle;Signal;HPM_P1;HPM_P2
2022/06/28 00:02:25;;;;;;;2.20;1.57;;;20.30;99.90;;;;;;4954966;28;20277;-74
2022/06/28 00:04:51;;;;;;;3.97;1.80;;;20.30;99.90;;;;;;4957151;28;20576;-74
2022/06/28 00:07:18;;;;;;;1.53;1.37;;;20.30;99.90;;;;;;4921800;29;20230;-73
2022/06/28 00:09:45;;;;;;;2.50;1.40;;;20.30;99.90;;;;;;4950761;28;20193;-74
2022/06/28 00:12:12;;;;;;;1.80;1.43;;;20.30;99.90;;;;;;4949072;28;20206;-74
2022/06/28 00:17:25;;;;;;;4.10;1.77;;;20.20;99.90;;;;;;4966024;28;20219;-74
2022/06/28 00:19:52;;;;;;;3.63;1.43;;;20.20;99.90;;;;;;4969725;28;20193;-74
2022/06/28 00:22:19;;;;;;;1.57;1.40;;;20.20;99.90;;;;;;4955755;28;20191;-74
2022/06/28 00:24:45;;;;;;;2.23;1.40;;;20.20;99.90;;;;;;4947599;28;20208;-74
2022/06/28 00:27:12;;;;;;;2.73;1.30;;;20.20;99.90;;;;;;4980240;28;20302;-74
2022/06/28 00:29:39;;;;;;;2.47;1.50;;;20.20;99.90;;;;;;4965221;28;20710;-74
2022/06/28 00:32:07;;;;;;;3.53;1.83;;;20.20;99.90;;;;;;4980557;28;20198;-73
2022/06/28 00:34:33;;;;;;;2.57;1.50;;;20.10;99.90;;;;;;4955601;28;20694;-74
2022/06/28 00:36:59;;;;;;;2.63;1.43;;;20.10;99.90;;;;;;4975339;28;20619;-74
2022/06/28 00:39:26;;;;;;;4.77;1.50;;;20.10;99.90;;;;;;4954689;28;20201;-73
2022/06/28 00:41:53;;;;;;;2.33;1.50;;;20.10;99.90;;;;;;4975866;28;20517;-73
2022/06/28 00:44:22;;;;;;;1.57;1.33;;;20.20;99.90;;;;;;4949934;28;21040;-74
2022/06/28 00:46:52;;;;;;;3.97;1.60;;;20.10;99.90;;;;;;4957085;28;20178;-74
2022/06/28 00:49:19;;;;;;;3.40;1.50;;;20.20;99.90;;;;;;4949394;28;20206;-74
2022/06/28 00:51:45;;;;;;;2.03;1.50;;;20.20;99.90;;;;;;4943796;28;20191;-74
2022/06/28 00:54:12;;;;;;;1.70;1.10;;;20.20;99.90;;;;;;4944497;28;20191;-74
2022/06/28 00:56:39;;;;;;;3.73;1.60;;;20.10;99.90;;;;;;4966626;28;20195;-75
2022/06/28 00:59:05;;;;;;;2.97;1.40;;;20.10;99.90;;;;;;4955127;28;20195;-75
2022/06/28 01:01:31;;;;;;;2.30;1.50;;;20.10;99.90;;;;;;4957330;28;20687;-75
2022/06/28 01:03:58;;;;;;;1.97;1.37;;;20.10;99.90;;;;;;4958121;28;20194;-74
2022/06/28 01:06:25;;;;;;;2.20;1.50;;;20.10;99.90;;;;;;4963826;28;20205;-73
2022/06/28 01:08:52;;;;;;;3.80;1.40;;;20.10;99.90;;;;;;4970390;28;20217;-74
2022/06/28 01:11:18;;;;;;;3.27;1.70;;;20.10;99.90;;;;;;4948329;28;20211;-74
2022/06/28 01:14:07;;;;;;;1.97;1.40;;;20.10;99.90;;;;;;4945532;28;20249;-74
2022/06/28 01:16:34;;;;;;;3.37;1.70;;;20.10;99.90;;;;;;4967071;28;20202;-73
2022/06/28 01:19:01;;;;;;;2.13;1.40;;;20.10;99.90;;;;;;4952784;28;20213;-74
2022/06/28 01:21:29;;;;;;;2.60;1.70;;;20.10;99.90;;;;;;4956274;28;20250;-74
2022/06/28 01:23:57;;;;;;;2.83;1.60;;;20.10;99.90;;;;;;4945014;28;21002;-74
2022/06/28 01:26:25;;;;;;;6.53;1.70;;;20.00;99.90;;;;;;4946345;28;20205;-73
2022/06/28 01:28:53;;;;;;;4.03;1.53;;;20.10;99.90;;;;;;4947773;28;20675;-74
2022/06/28 01:31:22;;;;;;;2.50;1.53;;;20.10;99.90;;;;;;4952038;28;20209;-73
2022/06/28 01:33:51;;;;;;;1.83;1.50;;;20.10;99.90;;;;;;4927231;28;20545;-74
2022/06/28 01:36:18;;;;;;;1.90;1.50;;;20.00;99.90;;;;;;4936187;28;20285;-74
2022/06/28 01:38:45;;;;;;;2.43;1.57;;;20.00;99.90;;;;;;4932588;29;20194;-73
2022/06/28 01:44:04;;;;;;;6.10;1.60;;;20.00;99.90;;;;;;4965971;28;20274;-74
2022/06/28 01:46:31;;;;;;;1.50;1.30;;;20.00;99.90;;;;;;4974679;28;20210;-73
2022/06/28 01:48:57;;;;;;;2.63;1.73;;;20.00;99.90;;;;;;4954450;28;20349;-74
2022/06/28 01:51:24;;;;;;;4.20;1.67;;;20.00;99.90;;;;;;4945695;28;20705;-74
2022/06/28 01:53:50;;;;;;;2.53;1.73;;;20.00;99.90;;;;;;4951144;28;20191;-74
2022/06/28 01:56:17;;;;;;;2.90;1.77;;;20.00;99.90;;;;;;4947334;28;20222;-73
2022/06/28 01:58:43;;;;;;;3.63;1.50;;;20.00;99.90;;;;;;4949609;28;20198;-74
2022/06/28 02:01:10;;;;;;;1.70;1.50;;;20.00;99.90;;;;;;4968543;28;20199;-73
2022/06/28 02:03:38;;;;;;;3.63;1.40;;;19.90;99.90;;;;;;4956360;28;20194;-74
2022/06/28 02:06:05;;;;;;;2.47;1.67;;;19.90;99.90;;;;;;4943575;28;20194;-73
2022/06/28 02:08:35;;;;;;;2.77;1.73;;;19.90;99.90;;;;;;4968963;28;20211;-74
2022/06/28 02:11:04;;;;;;;3.40;1.73;;;19.90;99.90;;;;;;4954126;28;20191;-74
2022/06/28 02:13:30;;;;;;;7.80;1.77;;;19.90;99.90;;;;;;4961753;28;20253;-74
2022/06/28 02:15:57;;;;;;;2.53;1.47;;;19.90;99.90;;;;;;4965932;28;20694;-73
2022/06/28 02:18:23;;;;;;;3.80;1.80;;;19.90;99.90;;;;;;4948315;28;20198;-74
2022/06/28 02:20:50;;;;;;;2.67;1.50;;;20.00;99.90;;;;;;4948528;28;20187;-74
2022/06/28 02:23:17;;;;;;;3.13;1.87;;;19.90;99.90;;;;;;4951847;28;20219;-74
2022/06/28 02:25:43;;;;;;;2.93;1.60;;;19.90;99.90;;;;;;4965841;28;20194;-74
2022/06/28 02:28:09;;;;;;;4.23;1.60;;;19.90;99.90;;;;;;4950156;28;20221;-73
2022/06/28 02:30:36;;;;;;;4.20;1.50;;;19.90;99.90;;;;;;4931862;29;20187;-75
2022/06/28 02:33:02;;;;;;;3.60;1.70;;;20.00;99.90;;;;;;4963653;28;20214;-73
2022/06/28 02:40:59;;;;;;;2.53;1.67;;;20.00;99.90;;;;;;4954874;28;20199;-73
2022/06/28 02:43:26;;;;;;;1.83;1.60;;;19.90;99.90;;;;;;4946092;28;20198;-74
2022/06/28 02:45:54;;;;;;;5.43;1.60;;;19.90;99.90;;;;;;4952033;28;20203;-74
2022/06/28 02:48:20;;;;;;;2.87;1.87;;;19.90;99.90;;;;;;4955275;28;20611;-74
2022/06/28 02:50:47;;;;;;;3.73;1.80;;;19.90;99.90;;;;;;4948950;29;20323;-74
2022/06/28 02:53:17;;;;;;;2.67;1.47;;;20.00;99.90;;;;;;4950315;28;20193;-74
2022/06/28 02:55:43;;;;;;;2.27;1.40;;;19.90;99.90;;;;;;4969419;28;20269;-74
2022/06/28 02:58:10;;;;;;;1.97;1.63;;;19.90;99.90;;;;;;4969246;28;20228;-73
2022/06/28 03:00:36;;;;;;;2.90;1.50;;;19.80;99.90;;;;;;4954285;28;20297;-74
2022/06/28 03:03:03;;;;;;;5.80;1.70;;;19.80;99.90;;;;;;4976778;28;20285;-73
2022/06/28 03:05:29;;;;;;;2.43;1.77;;;19.70;99.90;;;;;;4975000;28;20194;-74
2022/06/28 03:07:55;;;;;;;3.03;1.40;;;19.80;99.90;;;;;;4951622;28;20224;-73
2022/06/28 03:10:22;;;;;;;1.87;1.63;;;19.80;99.90;;;;;;4969224;28;20194;-74
2022/06/28 03:12:49;;;;;;;2.63;1.53;;;19.80;99.90;;;;;;4960562;28;20206;-74
2022/06/28 03:15:15;;;;;;;2.90;1.57;;;19.80;99.90;;;;;;4957141;28;20187;-74
2022/06/28 03:17:43;;;;;;;7.60;1.80;;;19.80;99.90;;;;;;4958492;28;20262;-75
2022/06/28 03:20:10;;;;;;;2.47;1.70;;;19.90;99.90;;;;;;4935880;28;20190;-74
2022/06/28 03:22:36;;;;;;;1.63;1.50;;;19.90;99.90;;;;;;4965723;28;20198;-74
2022/06/28 03:25:03;;;;;;;2.47;1.63;;;19.90;99.90;;;;;;4961673;28;20648;-74
2022/06/28 03:27:29;;;;;;;4.53;1.77;;;19.90;99.90;;;;;;4959073;28;20226;-74
2022/06/28 03:29:55;;;;;;;2.20;1.60;;;19.90;99.90;;;;;;4952767;29;20182;-73
2022/06/28 03:32:22;;;;;;;2.20;1.53;;;19.90;99.90;;;;;;4951834;28;20178;-73
2022/06/28 03:34:48;;;;;;;2.30;1.67;;;19.90;99.90;;;;;;4959902;28;20287;-74
2022/06/28 03:37:15;;;;;;;2.70;1.73;;;19.90;99.90;;;;;;4957878;28;20201;-73
2022/06/28 03:39:41;;;;;;;3.53;1.70;;;19.90;99.90;;;;;;4959182;28;20179;-74
2022/06/28 03:42:08;;;;;;;2.00;1.40;;;19.90;99.90;;;;;;4979900;28;20241;-73
2022/06/28 03:44:36;;;;;;;3.50;1.47;;;19.90;99.90;;;;;;4970881;28;20659;-73
2022/06/28 03:47:03;;;;;;;3.27;1.70;;;19.90;99.90;;;;;;4970697;28;20198;-74
2022/06/28 03:49:29;;;;;;;1.87;1.57;;;20.00;99.90;;;;;;4933531;29;20190;-74
2022/06/28 03:51:56;;;;;;;4.23;1.70;;;19.90;99.90;;;;;;4956484;28;20202;-73
2022/06/28 03:54:25;;;;;;;2.40;1.33;;;19.90;99.90;;;;;;4950430;28;20197;-74
2022/06/28 03:56:53;;;;;;;3.23;1.30;;;19.90;99.90;;;;;;4952337;28;20194;-73
2022/06/28 03:59:19;;;;;;;1.83;1.40;;;19.90;99.90;;;;;;4946911;28;20873;-74
2022/06/28 04:01:46;;;;;;;2.37;1.40;;;19.90;99.90;;;;;;4945412;29;20563;-74
2022/06/28 04:04:14;;;;;;;2.67;1.47;;;20.00;99.90;;;;;;4949927;28;20598;-74
2022/06/28 04:06:40;;;;;;;2.10;1.60;;;20.00;99.90;;;;;;4970396;28;20186;-74
2022/06/28 04:09:08;;;;;;;2.73;1.60;;;20.10;99.90;;;;;;4952890;28;20241;-73
2022/06/28 04:11:35;;;;;;;3.23;1.40;;;20.20;99.90;;;;;;4968827;28;20290;-73
2022/06/28 04:14:01;;;;;;;2.40;1.30;;;20.30;99.90;;;;;;4946650;29;20217;-74
2022/06/28 04:16:27;;;;;;;4.80;1.57;;;20.40;99.90;;;;;;4962033;28;20202;-73
2022/06/28 04:18:54;;;;;;;3.40;1.40;;;20.50;99.90;;;;;;4986624;28;20186;-73
2022/06/28 04:21:21;;;;;;;3.33;1.67;;;20.60;99.90;;;;;;4974166;28;20191;-73
2022/06/28 04:23:49;;;;;;;3.70;1.50;;;20.70;99.90;;;;;;4936026;28;20317;-73
2022/06/28 04:26:15;;;;;;;1.70;1.37;;;20.80;99.90;;;;;;4973173;28;20196;-74
2022/06/28 04:28:42;;;;;;;1.77;1.20;;;20.90;99.90;;;;;;4968101;28;20225;-74
2022/06/28 04:31:09;;;;;;;4.07;1.60;;;21.00;99.90;;;;;;4947691;28;20245;-74
2022/06/28 04:33:37;;;;;;;1.93;1.30;;;21.10;99.90;;;;;;4960185;28;20873;-74
2022/06/28 04:36:04;;;;;;;1.93;1.50;;;21.10;99.90;;;;;;4966657;28;20910;-74
2022/06/28 04:38:30;;;;;;;3.73;1.43;;;21.20;99.90;;;;;;4955758;28;20189;-74
2022/06/28 04:40:57;;;;;;;3.03;1.50;;;21.20;99.90;;;;;;4953785;28;20194;-74
2022/06/28 04:43:24;;;;;;;2.80;1.50;;;21.20;99.90;;;;;;4948574;28;20187;-74
2022/06/28 04:45:50;;;;;;;1.40;1.30;;;21.30;99.90;;;;;;4957890;28;20194;-74
2022/06/28 04:48:17;;;;;;;4.67;1.50;;;21.20;99.90;;;;;;4969924;28;20225;-73
2022/06/28 04:50:44;;;;;;;2.63;1.60;;;21.30;99.90;;;;;;4953978;28;20195;-74
2022/06/28 04:53:11;;;;;;;3.10;1.43;;;21.30;99.90;;;;;;4973222;28;20273;-74
2022/06/28 04:55:38;;;;;;;2.33;1.33;;;21.40;99.90;;;;;;4954754;28;20186;-73
2022/06/28 04:58:04;;;;;;;7.57;1.50;;;21.50;99.90;;;;;;4952309;28;20285;-74
2022/06/28 05:00:31;;;;;;;1.27;1.17;;;21.50;99.90;;;;;;4970223;28;20210;-74
2022/06/28 05:02:57;;;;;;;1.80;1.17;;;21.50;99.90;;;;;;4965139;28;20216;-74
2022/06/28 05:05:23;;;;;;;1.80;1.30;;;21.50;99.90;;;;;;4973698;28;20273;-73
2022/06/28 05:07:50;;;;;;;1.90;1.27;;;21.60;99.90;;;;;;4966261;28;20219;-73
2022/06/28 05:10:16;;;;;;;1.97;1.20;;;21.60;99.90;;;;;;4956411;28;20667;-74
2022/06/28 05:12:43;;;;;;;5.67;1.40;;;21.70;99.90;;;;;;4957669;28;20210;-74
2022/06/28 05:15:10;;;;;;;1.30;1.10;;;21.70;99.90;;;;;;4957901;28;20202;-75
2022/06/28 05:17:37;;;;;;;1.40;1.30;;;21.80;99.90;;;;;;4943176;28;20198;-73
2022/06/28 05:20:03;;;;;;;1.77;1.20;;;21.80;99.90;;;;;;4958475;28;20201;-73
2022/06/28 05:22:30;;;;;;;2.07;1.27;;;21.90;99.90;;;;;;4958491;28;20205;-74
2022/06/28 05:24:57;;;;;;;2.80;1.20;;;21.90;99.90;;;;;;4946499;28;20231;-74
2022/06/28 05:27:24;;;;;;;1.97;1.30;;;22.00;99.90;;;;;;4929929;29;20218;-73
2022/06/28 05:29:50;;;;;;;3.20;1.33;;;22.00;99.90;;;;;;4955241;28;20594;-73
2022/06/28 05:32:16;;;;;;;1.83;1.23;;;22.10;99.90;;;;;;4970868;28;20205;-74
2022/06/28 05:34:44;;;;;;;1.98;1.35;;;22.10;99.90;;;;;;4951334;28;20279;-74
2022/06/28 05:37:11;;;;;;;1.70;1.27;;;22.20;99.90;;;;;;4952795;28;20639;-74
2022/06/28 05:39:37;;;;;;;3.00;1.27;;;22.20;99.90;;;;;;4964381;28;20199;-73
2022/06/28 05:42:04;;;;;;;3.77;1.43;;;22.30;99.90;;;;;;4957894;28;20339;-74
2022/06/28 05:44:31;;;;;;;2.60;1.37;;;22.50;99.90;;;;;;4973346;28;20182;-74
2022/06/28 05:46:57;;;;;;;3.92;1.55;;;22.60;99.90;;;;;;4960512;28;20206;-74
2022/06/28 05:49:24;;;;;;;2.47;1.20;;;22.80;99.90;;;;;;4947421;29;20219;-73
2022/06/28 05:51:51;;;;;;;1.53;1.20;;;22.80;99.90;;;;;;4944045;28;20194;-74
2022/06/28 05:54:18;;;;;;;2.47;1.48;;;22.90;99.90;;;;;;4944043;28;20205;-73
2022/06/28 05:56:45;;;;;;;1.23;1.10;;;23.00;99.90;;;;;;4962698;28;20217;-74
2022/06/28 05:59:12;;;;;;;3.90;1.10;;;23.10;99.90;;;;;;4962677;28;20620;-73
2022/06/28 06:01:38;;;;;;;2.40;1.40;;;23.20;99.90;;;;;;4946472;28;20647;-75
2022/06/28 06:04:05;;;;;;;2.90;1.30;;;23.30;99.90;;;;;;4945835;28;20249;-75
2022/06/28 06:06:32;;;;;;;2.83;1.45;;;23.40;99.90;;;;;;4946564;28;20223;-75
2022/06/28 06:08:59;;;;;;;3.42;1.52;;;23.50;99.90;;;;;;4971006;28;20246;-73
2022/06/28 06:11:26;;;;;;;3.58;1.73;;;23.60;99.90;;;;;;4976566;28;20543;-75
2022/06/28 06:13:53;;;;;;;3.28;1.40;;;23.60;99.90;;;;;;4949072;28;20282;-74
2022/06/28 06:16:20;;;;;;;3.35;1.30;;;23.70;99.90;;;;;;4951178;28;20249;-75
2022/06/28 06:18:47;;;;;;;3.15;1.30;;;23.80;99.90;;;;;;4947706;29;20668;-74
2022/06/28 06:21:13;;;;;;;4.50;1.50;;;23.90;99.90;;;;;;4969796;28;20265;-74
2022/06/28 06:23:40;;;;;;;2.13;1.23;;;23.90;99.90;;;;;;4946403;28;20194;-75
2022/06/28 06:26:06;;;;;;;2.20;1.65;;;24.00;99.90;;;;;;4961398;28;20221;-74
2022/06/28 06:28:35;;;;;;;5.20;1.85;;;24.10;99.90;;;;;;4955022;28;20218;-75
2022/06/28 06:31:03;;;;;;;5.43;1.75;;;24.20;99.90;;;;;;4953955;28;20226;-75
2022/06/28 06:33:29;;;;;;;9.18;1.60;;;24.30;99.90;;;;;;4955976;28;20199;-77
2022/06/28 06:35:55;;;;;;;6.63;1.63;;;24.30;99.90;;;;;;4950945;29;20532;-74
2022/06/28 06:38:22;;;;;;;10.05;1.85;;;24.50;99.90;;;;;;4960110;28;20262;-75
2022/06/28 06:40:48;;;;;;;3.08;1.70;;;24.60;99.90;;;;;;4940423;28;20255;-74
2022/06/28 06:43:15;;;;;;;4.00;1.80;;;24.60;99.90;;;;;;4943905;28;20250;-74
2022/06/28 06:45:41;;;;;;;5.93;1.95;;;24.70;99.90;;;;;;4952056;29;20184;-74
2022/06/28 06:48:08;;;;;;;4.00;1.65;;;24.80;99.90;;;;;;4967415;28;20269;-75
2022/06/28 06:50:35;;;;;;;2.92;1.30;;;24.80;99.90;;;;;;4950758;29;20265;-74
2022/06/28 06:53:02;;;;;;;5.03;1.95;;;24.90;99.90;;;;;;4946711;28;20209;-74
2022/06/28 06:55:29;;;;;;;4.43;1.75;;;24.90;99.90;;;;;;4950992;28;20198;-75
2022/06/28 06:57:56;;;;;;;3.90;2.00;;;25.00;99.90;;;;;;4967623;28;20219;-75
2022/06/28 07:00:23;;;;;;;5.60;1.60;;;25.00;99.90;;;;;;4970418;28;20205;-75
2022/06/28 07:02:49;;;;;;;2.65;1.50;;;25.10;99.90;;;;;;4955666;28;20187;-74
2022/06/28 07:05:16;;;;;;;4.18;1.70;;;25.20;99.90;;;;;;4935858;29;20529;-74
2022/06/28 07:07:44;;;;;;;4.60;1.63;;;25.20;99.90;;;;;;4952363;28;20565;-76
2022/06/28 07:10:11;;;;;;;5.10;2.13;;;25.30;99.90;;;;;;4935847;29;20242;-75
2022/06/28 07:12:38;;;;;;;4.22;1.40;;;25.40;99.90;;;;;;4955274;28;20266;-74
2022/06/28 07:15:06;;;;;;;4.70;1.63;;;25.50;99.90;;;;;;4930213;29;20192;-77
2022/06/28 07:17:33;;;;;;;4.10;1.77;;;25.50;99.90;;;;;;4952312;28;20563;-74
2022/06/28 07:19:59;;;;;;;3.35;1.60;;;25.60;99.90;;;;;;4950568;28;20198;-75
2022/06/28 07:22:25;;;;;;;8.05;1.58;;;25.60;99.90;;;;;;4966225;28;20183;-76
2022/06/28 07:24:53;;;;;;;3.63;1.40;;;25.70;99.90;;;;;;4945786;29;20775;-74
2022/06/28 07:27:20;;;;;;;7.43;1.67;;;25.70;99.90;;;;;;4962401;28;20274;-75
2022/06/28 07:29:48;;;;;;;3.05;1.55;;;25.80;99.90;;;;;;4952608;28;20195;-75
2022/06/28 07:32:16;;;;;;;4.00;1.67;;;25.90;99.90;;;;;;4953008;28;20197;-75
2022/06/28 07:34:43;;;;;;;4.82;1.63;;;25.90;99.90;;;;;;4951286;28;20209;-75
2022/06/28 07:37:10;;;;;;;3.20;1.50;;;25.90;99.90;;;;;;4940143;28;20198;-76
2022/06/28 07:39:38;;;;;;;2.60;1.60;;;26.00;99.90;;;;;;4954903;28;20313;-74
2022/06/28 07:42:05;;;;;;;3.30;1.63;;;26.10;99.90;;;;;;4973792;28;20205;-75
2022/06/28 07:44:32;;;;;;;4.65;1.90;;;26.20;99.90;;;;;;4976711;28;20201;-74
2022/06/28 07:46:59;;;;;;;5.72;1.60;;;26.30;99.90;;;;;;4948059;29;20190;-76
2022/06/28 07:52:33;;;;;;;3.17;1.58;;;26.40;99.90;;;;;;4948476;28;20219;-75
2022/06/28 07:54:57;;;;;;;3.08;1.52;;;26.60;99.90;;;;;;4946630;28;20179;-75
2022/06/28 07:57:26;;;;;;;1.83;1.48;;;26.60;99.90;;;;;;4948816;28;20911;-76
2022/06/28 07:59:54;;;;;;;4.45;1.95;;;26.60;99.90;;;;;;4934934;29;20191;-75
2022/06/28 08:02:20;;;;;;;4.38;1.90;;;26.70;99.90;;;;;;4966165;28;20245;-74
2022/06/28 08:04:51;;;;;;;5.15;1.70;;;26.80;99.90;;;;;;4943340;28;20190;-76
2022/06/28 08:07:21;;;;;;;6.93;1.92;;;26.80;99.90;;;;;;4947062;29;20187;-76
2022/06/28 08:09:49;;;;;;;7.82;1.98;;;26.90;99.90;;;;;;4938430;28;20198;-75
2022/06/28 08:12:18;;;;;;;4.63;1.73;;;26.90;99.90;;;;;;4965949;28;20674;-74
2022/06/28 08:14:44;;;;;;;6.95;1.83;;;27.00;99.90;;;;;;4945772;28;20250;-74
2022/06/28 08:17:11;;;;;;;7.45;1.70;;;26.90;99.90;;;;;;4946446;28;20222;-75
2022/06/28 08:19:38;;;;;;;8.70;1.85;;;27.00;99.90;;;;;;4950824;28;20203;-74
2022/06/28 08:22:05;;;;;;;3.03;1.60;;;27.10;99.90;;;;;;4954261;28;20194;-75
2022/06/28 08:24:31;;;;;;;4.70;1.60;;;27.10;99.90;;;;;;4954347;28;20187;-76
2022/06/28 08:26:58;;;;;;;2.85;1.67;;;27.10;99.90;;;;;;4973785;28;20194;-74
2022/06/28 08:29:25;;;;;;;2.65;1.60;;;27.20;99.90;;;;;;4948870;28;20214;-75
2022/06/28 08:31:51;;;;;;;6.47;2.10;;;27.40;99.90;;;;;;4948972;28;20219;-75
2022/06/28 08:34:18;;;;;;;5.38;1.95;;;27.60;99.90;;;;;;4948952;29;20237;-75
2022/06/28 08:36:44;;;;;;;3.10;1.50;;;27.50;99.90;;;;;;4966009;28;20191;-75
2022/06/28 08:39:11;;;;;;;1.70;1.40;;;27.50;99.90;;;;;;4948145;29;20198;-74
2022/06/28 08:41:41;;;;;;;6.47;1.80;;;27.60;99.90;;;;;;4936888;28;20190;-75
2022/06/28 08:44:11;;;;;;;2.55;1.60;;;27.60;99.90;;;;;;4949887;28;20199;-75
2022/06/28 08:46:38;;;;;;;5.57;1.90;;;27.70;99.90;;;;;;4963674;28;20190;-74
2022/06/28 08:49:14;;;;;;;4.50;1.60;;;27.70;99.90;;;;;;4948583;28;20253;-75
2022/06/28 08:51:42;;;;;;;2.45;1.70;;;27.80;99.90;;;;;;4948533;28;20286;-74
2022/06/28 08:54:08;;;;;;;2.70;1.45;;;27.90;99.90;;;;;;4937916;28;20194;-75
2022/06/28 08:56:38;;;;;;;2.80;1.45;;;28.00;99.90;;;;;;4951626;28;20309;-74
2022/06/28 08:59:07;;;;;;;3.65;1.77;;;28.00;99.90;;;;;;4940083;28;20199;-75
2022/06/28 09:01:34;;;;;;;3.65;1.73;;;28.00;99.90;;;;;;4964303;28;20224;-74
2022/06/28 09:04:04;;;;;;;4.47;1.40;;;28.10;99.90;;;;;;4963631;28;20946;-74
2022/06/28 09:06:30;;;;;;;2.65;1.48;;;28.10;99.90;;;;;;4948623;28;20286;-74
2022/06/28 09:08:57;;;;;;;4.78;1.52;;;28.30;99.90;;;;;;4950547;28;20293;-74
2022/06/28 09:11:23;;;;;;;3.85;1.50;;;28.40;99.90;;;;;;4948715;28;20210;-74
2022/06/28 09:13:50;;;;;;;4.30;1.30;;;28.30;99.90;;;;;;4946065;28;20596;-74
2022/06/28 09:16:19;;;;;;;5.65;1.70;;;28.40;99.90;;;;;;4932276;29;20230;-74
2022/06/28 09:18:48;;;;;;;4.53;1.40;;;28.40;99.90;;;;;;4963113;28;20234;-74
2022/06/28 09:21:18;;;;;;;5.15;1.40;;;28.50;99.90;;;;;;4943846;28;20190;-75
2022/06/28 09:23:52;;;;;;;2.05;1.60;;;28.60;99.90;;;;;;4943349;28;20187;-74
2022/06/28 09:26:21;;;;;;;4.25;1.60;;;28.60;99.90;;;;;;4958182;28;20198;-74
2022/06/28 09:28:51;;;;;;;3.85;1.80;;;28.70;99.90;;;;;;4947329;28;20238;-73
2022/06/28 09:31:29;;;;;;;6.20;1.50;;;28.80;99.90;;;;;;4956255;28;20198;-75
2022/06/28 09:34:07;;;;;;;2.25;1.20;;;28.80;99.90;;;;;;4956251;28;20190;-73
2022/06/28 09:36:42;;;;;;;1.67;1.20;;;28.80;99.90;;;;;;4932562;29;20191;-74
2022/06/28 09:39:16;;;;;;;3.33;1.50;;;28.90;99.90;;;;;;4949375;28;20281;-74
2022/06/28 09:41:52;;;;;;;2.60;1.20;;;29.00;99.90;;;;;;4949916;28;20193;-73
2022/06/28 09:44:28;;;;;;;1.92;1.30;;;29.10;99.90;;;;;;4947419;28;20253;-74
2022/06/28 09:46:57;;;;;;;3.83;1.30;;;29.30;99.90;;;;;;4952481;28;20186;-74
2022/06/28 09:49:29;;;;;;;3.08;1.30;;;29.30;99.90;;;;;;4944695;28;20533;-75
2022/06/28 09:52:01;;;;;;;4.25;1.58;;;29.40;99.90;;;;;;4944181;28;20233;-74
2022/06/28 09:54:29;;;;;;;4.30;1.40;;;29.50;99.90;;;;;;4947437;28;20190;-74
2022/06/28 09:56:57;;;;;;;2.28;1.38;;;29.40;99.90;;;;;;4959387;28;20190;-74
2022/06/28 09:59:28;;;;;;;3.08;1.27;;;29.30;99.90;;;;;;4986560;28;20654;-74
2022/06/28 10:01:56;;;;;;;7.25;1.30;;;29.40;99.90;;;;;;4957454;28;20201;-74
2022/06/28 10:04:25;;;;;;;2.78;1.40;;;29.50;99.90;;;;;;4945566;28;20281;-74
2022/06/28 10:06:52;;;;;;;5.20;1.20;;;29.60;99.90;;;;;;4943981;29;20183;-75
2022/06/28 10:09:21;;;;;;;3.33;1.33;;;29.70;99.90;;;;;;4959292;28;20241;-73
2022/06/28 10:17:50;;;;;;;1.70;1.10;;;29.80;99.90;;;;;;4968636;28;20646;-73
2022/06/28 10:20:28;;;;;;;3.28;1.50;;;29.80;99.90;;;;;;4974494;28;20198;-74
2022/06/28 10:23:33;;;;;;;3.55;1.70;;;29.80;99.90;;;;;;4952708;28;20191;-74
2022/06/28 10:26:17;;;;;;;2.80;1.42;;;29.80;99.90;;;;;;4956441;28;20547;-77
2022/06/28 10:28:46;;;;;;;3.90;1.45;;;29.80;99.90;;;;;;4949694;28;20267;-75
2022/06/28 10:31:22;;;;;;;3.13;1.20;;;29.80;99.90;;;;;;4948709;28;20733;-74
2022/06/28 10:33:52;;;;;;;4.07;1.50;;;29.80;99.90;;;;;;4960204;28;20183;-74
2022/06/28 10:36:24;;;;;;;4.82;1.50;;;29.80;99.90;;;;;;4949480;28;20195;-75
2022/06/28 10:39:09;;;;;;;4.88;1.33;;;29.90;99.90;;;;;;4949183;28;20250;-77
2022/06/28 10:41:42;;;;;;;4.72;1.40;;;29.80;99.90;;;;;;4951398;28;20278;-75
2022/06/28 10:44:20;;;;;;;1.63;1.10;;;29.80;99.90;;;;;;4951062;28;20253;-74
2022/06/28 10:46:52;;;;;;;2.50;1.15;;;29.80;99.90;;;;;;4965820;28;20612;-74
2022/06/28 10:49:20;;;;;;;2.47;1.30;;;29.80;99.90;;;;;;4965626;28;20326;-73
2022/06/28 10:52:26;;;;;;;3.88;1.50;;;29.80;99.90;;;;;;4946778;28;20258;-74
2022/06/28 10:54:54;;;;;;;2.33;1.27;;;29.80;99.90;;;;;;4955292;28;20298;-74
2022/06/28 10:57:40;;;;;;;4.80;1.50;;;29.80;99.90;;;;;;4960245;28;20190;-75
2022/06/28 11:00:26;;;;;;;3.45;1.40;;;29.80;99.90;;;;;;4936721;29;20286;-75
2022/06/28 11:02:55;;;;;;;4.00;1.48;;;29.80;99.90;;;;;;4953351;28;20189;-74
2022/06/28 11:05:44;;;;;;;2.00;1.00;;;29.80;99.90;;;;;;4959623;28;20568;-74
2022/06/28 11:08:34;;;;;;;2.22;1.23;;;29.80;99.90;;;;;;4946426;28;20219;-76
2022/06/28 11:11:05;;;;;;;2.28;1.20;;;29.70;99.90;;;;;;4972218;28;20190;-74
2022/06/28 11:13:32;;;;;;;3.05;1.30;;;29.60;99.90;;;;;;4969390;28;20528;-73
2022/06/28 11:15:58;;;;;;;4.78;1.25;;;29.70;99.90;;;;;;4951924;29;20245;-74
2022/06/28 11:18:25;;;;;;;4.40;1.40;;;29.70;99.90;;;;;;4933939;29;20214;-73
2022/06/28 11:20:53;;;;;;;3.85;1.20;;;29.70;99.90;;;;;;4952253;28;20198;-76
2022/06/28 11:23:31;;;;;;;3.25;1.42;;;29.60;99.90;;;;;;4960475;28;20555;-75
2022/06/28 11:29:00;;;;;;;7.70;1.25;;;29.70;99.90;;;;;;4946939;28;20766;-77
2022/06/28 11:31:38;;;;;;;3.67;1.35;;;29.70;99.90;;;;;;4947579;29;20203;-76
2022/06/28 11:34:06;;;;;;;4.03;1.20;;;29.70;99.90;;;;;;4945167;28;20187;-74
2022/06/28 11:36:34;;;;;;;6.15;1.60;;;29.70;99.90;;;;;;4929149;29;20269;-77
2022/06/28 11:39:18;;;;;;;1.88;1.23;;;29.70;99.90;;;;;;4970112;28;20212;-77
2022/06/28 11:41:55;;;;;;;3.33;1.30;;;29.70;99.90;;;;;;4932922;29;20259;-76
2022/06/28 11:44:29;;;;;;;2.42;1.08;;;29.60;99.90;;;;;;4949372;28;20274;-78
2022/06/28 11:46:56;;;;;;;2.83;1.30;;;29.80;99.90;;;;;;4954401;28;20202;-76
2022/06/28 11:49:32;;;;;;;5.75;1.27;;;29.70;99.90;;;;;;4945810;29;20219;-75
2022/06/28 11:51:59;;;;;;;2.38;1.15;;;29.50;99.90;;;;;;4944440;28;20280;-77
2022/06/28 11:54:27;;;;;;;8.88;1.40;;;29.40;99.90;;;;;;4958854;28;20209;-77
2022/06/28 11:56:54;;;;;;;2.97;1.30;;;29.50;99.90;;;;;;4941056;29;20191;-76
2022/06/28 11:59:55;;;;;;;1.40;1.10;;;29.50;99.90;;;;;;4933958;29;20789;-78
2022/06/28 12:02:44;;;;;;;2.50;1.30;;;29.50;99.90;;;;;;4937642;28;20198;-76
2022/06/28 12:05:13;;;;;;;2.45;1.38;;;29.50;99.90;;;;;;4966017;28;20185;-77
2022/06/28 12:07:43;;;;;;;1.88;1.13;;;29.50;99.90;;;;;;4970989;28;20663;-78
2022/06/28 12:10:23;;;;;;;5.50;1.45;;;29.40;99.90;;;;;;4934807;29;20277;-75
2022/06/28 12:12:50;;;;;;;1.20;1.10;;;29.40;99.90;;;;;;4932374;28;20198;-78
2022/06/28 12:15:31;;;;;;;2.65;1.20;;;29.30;99.90;;;;;;4946571;28;20187;-78
2022/06/28 12:18:06;;;;;;;4.95;1.48;;;29.40;99.90;;;;;;4963414;28;20183;-77
2022/06/28 12:20:35;;;;;;;4.22;1.20;;;29.50;99.90;;;;;;4944368;28;20197;-75
2022/06/28 12:23:07;;;;;;;4.53;1.27;;;29.50;99.90;;;;;;4930488;28;20207;-77
2022/06/28 12:25:35;;;;;;;3.78;1.40;;;29.40;99.90;;;;;;4932973;29;20540;-77
2022/06/28 12:28:03;;;;;;;1.23;0.90;;;29.40;99.90;;;;;;4930749;28;20223;-78
2022/06/28 12:30:29;;;;;;;2.13;1.10;;;29.50;99.90;;;;;;4947325;28;20630;-76
2022/06/28 12:32:56;;;;;;;5.75;1.50;;;29.50;99.90;;;;;;4960482;28;20183;-78
2022/06/28 12:35:24;;;;;;;4.53;1.55;;;29.60;99.90;;;;;;4954137;28;20187;-77
2022/06/28 12:37:52;;;;;;;2.97;1.23;;;29.40;99.90;;;;;;4949208;28;20183;-76
2022/06/28 12:40:21;;;;;;;5.43;1.40;;;29.40;99.90;;;;;;4959105;28;20279;-77
2022/06/28 12:42:49;;;;;;;5.00;1.27;;;29.40;99.90;;;;;;4930485;28;20187;-78
2022/06/28 12:45:15;;;;;;;2.67;1.40;;;29.50;99.90;;;;;;4949074;28;20511;-73
2022/06/28 12:47:43;;;;;;;3.40;1.10;;;29.40;99.90;;;;;;4961487;28;20246;-73
2022/06/28 12:50:17;;;;;;;1.50;0.93;;;29.40;99.90;;;;;;4933991;28;20543;-77
2022/06/28 12:52:45;;;;;;;2.30;1.30;;;29.50;99.90;;;;;;4930729;29;20187;-79
2022/06/28 12:55:12;;;;;;;2.28;1.20;;;29.60;99.90;;;;;;4950720;28;20278;-75
2022/06/28 12:57:40;;;;;;;1.85;1.00;;;29.50;99.90;;;;;;4942436;29;20191;-76
2022/06/28 13:00:12;;;;;;;1.55;1.00;;;29.60;99.90;;;;;;4944911;28;20222;-74
2022/06/28 13:02:41;;;;;;;1.30;1.00;;;29.30;99.90;;;;;;4935106;29;20194;-80
2022/06/28 13:05:12;;;;;;;5.55;1.40;;;29.20;99.90;;;;;;4944425;29;20187;-78
2022/06/28 13:07:41;;;;;;;5.20;1.48;;;29.30;99.90;;;;;;4934891;28;20734;-78
2022/06/28 13:10:13;;;;;;;1.98;1.10;;;29.40;99.90;;;;;;4963689;28;20278;-76
2022/06/28 13:12:40;;;;;;;2.72;1.40;;;29.40;99.90;;;;;;4942536;28;20589;-78
2022/06/28 13:15:11;;;;;;;1.48;1.30;;;29.40;99.90;;;;;;4946543;28;20189;-76
2022/06/28 13:17:37;;;;;;;2.60;1.20;;;29.30;99.90;;;;;;4931199;29;20194;-77
2022/06/28 13:20:06;;;;;;;1.88;1.00;;;29.30;99.90;;;;;;4937210;28;20194;-77